sensor_id;sensor_type;location;lat;lon;timestamp;temperature;humidity
8527;DHT22;4301;48.362;8.478;2022-10-24T00:00:49;13.50;99.90
8527;DHT22;4301;48.362;8.478;2022-10-24T00:03:16;13.50;99.90
8527;DHT22;4301;48.362;8.478;2022-10-24T00:05:44;13.60;99.90
8527;DHT22;4301;48.362;8.478;2022-10-24T00:08:11;13.50;99.90
8527;DHT22;4301;48.362;8.478;2022-10-24T00:10:40;13.40;99.90
8527;DHT22;4301;48.362;8.478;2022-10-24T00:13:09;13.40;99.90
8527;DHT22;4301;48.362;8.478;2022-10-24T00:15:37;13.20;99.90
8527;DHT22;4301;48.362;8.478;2022-10-24T00:18:04;13.10;99.90
8527;DHT22;4301;48.362;8.478;2022-10-24T00:20:31;12.90;99.90
8527;DHT22;4301;48.362;8.478;2022-10-24T00:22:58;12.80;99.90
8527;DHT22;4301;48.362;8.478;2022-10-24T00:25:25;12.80;99.90
8527;DHT22;4301;48.362;8.478;2022-10-24T00:27:52;12.70;99.90
8527;DHT22;4301;48.362;8.478;2022-10-24T00:30:19;12.60;99.90
8527;DHT22;4301;48.362;8.478;2022-10-24T00:32:48;12.60;99.90
8527;DHT22;4301;48.362;8.478;2022-10-24T00:35:16;12.60;99.90
8527;DHT22;4301;48.362;8.478;2022-10-24T00:37:42;12.60;99.90
8527;DHT22;4301;48.362;8.478;2022-10-24T00:40:13;12.60;99.90
8527;DHT22;4301;48.362;8.478;2022-10-24T00:42:41;12.60;99.90
8527;DHT22;4301;48.362;8.478;2022-10-24T00:45:40;12.80;99.90
8527;DHT22;4301;48.362;8.478;2022-10-24T00:48:18;13.10;99.90
8527;DHT22;4301;48.362;8.478;2022-10-24T00:50:48;13.40;99.90
8527;DHT22;4301;48.362;8.478;2022-10-24T00:53:16;13.60;99.90
8527;DHT22;4301;48.362;8.478;2022-10-24T00:55:46;13.80;99.90
8527;DHT22;4301;48.362;8.478;2022-10-24T00:58:17;13.80;99.90
8527;DHT22;4301;48.362;8.478;2022-10-24T01:00:44;13.90;99.90
8527;DHT22;4301;48.362;8.478;2022-10-24T01:03:13;13.90;99.90
8527;DHT22;4301;48.362;8.478;2022-10-24T01:05:52;13.90;99.90
8527;DHT22;4301;48.362;8.478;2022-10-24T01:08:27;13.90;99.90
8527;DHT22;4301;48.362;8.478;2022-10-24T01:11:05;14.10;99.90
8527;DHT22;4301;48.362;8.478;2022-10-24T01:13:39;14.20;99.90
8527;DHT22;4301;48.362;8.478;2022-10-24T01:16:16;14.30;99.90
8527;DHT22;4301;48.362;8.478;2022-10-24T01:18:49;14.30;99.90
8527;DHT22;4301;48.362;8.478;2022-10-24T01:21:27;14.30;99.90
8527;DHT22;4301;48.362;8.478;2022-10-24T01:24:05;14.30;99.90
8527;DHT22;4301;48.362;8.478;2022-10-24T01:26:54;14.40;99.90
8527;DHT22;4301;48.362;8.478;2022-10-24T01:29:48;14.50;99.90
8527;DHT22;4301;48.362;8.478;2022-10-24T01:32:24;14.60;99.90
8527;DHT22;4301;48.362;8.478;2022-10-24T01:34:58;14.80;99.90
8527;DHT22;4301;48.362;8.478;2022-10-24T01:37:29;14.80;99.90
8527;DHT22;4301;48.362;8.478;2022-10-24T01:40:02;14.60;99.90
8527;DHT22;4301;48.362;8.478;2022-10-24T01:42:35;14.80;99.90
8527;DHT22;4301;48.362;8.478;2022-10-24T01:45:06;14.80;99.90
8527;DHT22;4301;48.362;8.478;2022-10-24T01:47:39;14.70;99.90
8527;DHT22;4301;48.362;8.478;2022-10-24T01:50:11;14.70;99.90
8527;DHT22;4301;48.362;8.478;2022-10-24T01:52:42;14.70;99.90
8527;DHT22;4301;48.362;8.478;2022-10-24T01:55:10;14.70;99.90
8527;DHT22;4301;48.362;8.478;2022-10-24T01:57:38;14.60;99.90
8527;DHT22;4301;48.362;8.478;2022-10-24T02:00:15;14.60;99.90
8527;DHT22;4301;48.362;8.478;2022-10-24T02:02:45;14.60;99.90
8527;DHT22;4301;48.362;8.478;2022-10-24T02:05:17;14.40;99.90
8527;DHT22;4301;48.362;8.478;2022-10-24T02:07:49;14.20;99.90
8527;DHT22;4301;48.362;8.478;2022-10-24T02:10:20;14.10;99.90
8527;DHT22;4301;48.362;8.478;2022-10-24T02:12:51;13.90;99.90
8527;DHT22;4301;48.362;8.478;2022-10-24T02:15:23;14.00;99.90
8527;DHT22;4301;48.362;8.478;2022-10-24T02:17:51;14.10;99.90
8527;DHT22;4301;48.362;8.478;2022-10-24T02:20:24;14.00;99.90
8527;DHT22;4301;48.362;8.478;2022-10-24T02:22:56;14.10;99.90
8527;DHT22;4301;48.362;8.478;2022-10-24T02:25:29;14.10;99.90
8527;DHT22;4301;48.362;8.478;2022-10-24T02:28:02;14.20;99.90
8527;DHT22;4301;48.362;8.478;2022-10-24T02:30:34;14.20;99.90
8527;DHT22;4301;48.362;8.478;2022-10-24T02:33:03;14.20;99.90
8527;DHT22;4301;48.362;8.478;2022-10-24T02:35:33;14.20;99.90
8527;DHT22;4301;48.362;8.478;2022-10-24T02:38:10;14.10;99.90
8527;DHT22;4301;48.362;8.478;2022-10-24T02:40:40;14.10;99.90
8527;DHT22;4301;48.362;8.478;2022-10-24T02:43:10;14.00;99.90
8527;DHT22;4301;48.362;8.478;2022-10-24T02:45:40;14.00;99.90
8527;DHT22;4301;48.362;8.478;2022-10-24T02:48:10;13.90;99.90
8527;DHT22;4301;48.362;8.478;2022-10-24T02:50:39;13.90;99.90
8527;DHT22;4301;48.362;8.478;2022-10-24T02:53:08;13.80;99.90
8527;DHT22;4301;48.362;8.478;2022-10-24T02:55:36;13.90;99.90
8527;DHT22;4301;48.362;8.478;2022-10-24T02:58:03;13.80;99.90
8527;DHT22;4301;48.362;8.478;2022-10-24T03:00:30;13.80;99.90
8527;DHT22;4301;48.362;8.478;2022-10-24T03:02:58;13.80;99.90
8527;DHT22;4301;48.362;8.478;2022-10-24T03:05:25;13.80;99.90
8527;DHT22;4301;48.362;8.478;2022-10-24T03:07:52;13.70;99.90
8527;DHT22;4301;48.362;8.478;2022-10-24T03:10:19;13.70;99.90
8527;DHT22;4301;48.362;8.478;2022-10-24T03:12:46;13.70;99.90
8527;DHT22;4301;48.362;8.478;2022-10-24T03:15:13;13.60;99.90
8527;DHT22;4301;48.362;8.478;2022-10-24T03:17:40;13.60;99.90
8527;DHT22;4301;48.362;8.478;2022-10-24T03:20:09;13.60;99.90
8527;DHT22;4301;48.362;8.478;2022-10-24T03:22:36;13.50;99.90
8527;DHT22;4301;48.362;8.478;2022-10-24T03:25:03;13.50;99.90
8527;DHT22;4301;48.362;8.478;2022-10-24T03:27:31;13.40;99.90
8527;DHT22;4301;48.362;8.478;2022-10-24T03:29:59;13.40;99.90
8527;DHT22;4301;48.362;8.478;2022-10-24T03:32:26;13.40;99.90
8527;DHT22;4301;48.362;8.478;2022-10-24T03:34:53;13.40;99.90
8527;DHT22;4301;48.362;8.478;2022-10-24T03:37:21;13.40;99.90
8527;DHT22;4301;48.362;8.478;2022-10-24T03:39:48;13.40;99.90
8527;DHT22;4301;48.362;8.478;2022-10-24T03:42:15;13.40;99.90
8527;DHT22;4301;48.362;8.478;2022-10-24T03:44:42;13.30;99.90
8527;DHT22;4301;48.362;8.478;2022-10-24T03:47:09;13.30;99.90
8527;DHT22;4301;48.362;8.478;2022-10-24T03:49:36;13.30;99.90
8527;DHT22;4301;48.362;8.478;2022-10-24T03:52:03;13.30;99.90
8527;DHT22;4301;48.362;8.478;2022-10-24T03:54:31;13.30;99.90
8527;DHT22;4301;48.362;8.478;2022-10-24T03:56:59;13.30;99.90
8527;DHT22;4301;48.362;8.478;2022-10-24T03:59:26;13.30;99.90
8527;DHT22;4301;48.362;8.478;2022-10-24T04:01:53;13.30;99.90
8527;DHT22;4301;48.362;8.478;2022-10-24T04:04:20;13.30;99.90
8527;DHT22;4301;48.362;8.478;2022-10-24T04:06:46;13.30;99.90
8527;DHT22;4301;48.362;8.478;2022-10-24T04:09:13;13.30;99.90
8527;DHT22;4301;48.362;8.478;2022-10-24T04:11:42;13.40;99.90
8527;DHT22;4301;48.362;8.478;2022-10-24T04:14:09;13.40;99.90
8527;DHT22;4301;48.362;8.478;2022-10-24T04:16:36;13.40;99.90
8527;DHT22;4301;48.362;8.478;2022-10-24T04:19:03;13.40;99.90
8527;DHT22;4301;48.362;8.478;2022-10-24T04:21:30;13.40;99.90
8527;DHT22;4301;48.362;8.478;2022-10-24T04:23:57;13.40;99.90
8527;DHT22;4301;48.362;8.478;2022-10-24T04:26:24;13.50;99.90
8527;DHT22;4301;48.362;8.478;2022-10-24T04:28:52;13.60;99.90
8527;DHT22;4301;48.362;8.478;2022-10-24T04:31:19;13.70;99.90
8527;DHT22;4301;48.362;8.478;2022-10-24T04:33:46;13.80;99.90
8527;DHT22;4301;48.362;8.478;2022-10-24T04:36:13;13.80;99.90
8527;DHT22;4301;48.362;8.478;2022-10-24T04:38:40;13.90;99.90
8527;DHT22;4301;48.362;8.478;2022-10-24T04:41:07;14.00;99.90
8527;DHT22;4301;48.362;8.478;2022-10-24T04:43:34;14.00;99.90
8527;DHT22;4301;48.362;8.478;2022-10-24T04:46:02;13.90;99.90
8527;DHT22;4301;48.362;8.478;2022-10-24T04:48:29;13.90;99.90
8527;DHT22;4301;48.362;8.478;2022-10-24T04:50:56;13.90;99.90
8527;DHT22;4301;48.362;8.478;2022-10-24T04:53:24;13.90;99.90
8527;DHT22;4301;48.362;8.478;2022-10-24T04:55:51;13.90;99.90
8527;DHT22;4301;48.362;8.478;2022-10-24T04:58:18;13.90;99.90
8527;DHT22;4301;48.362;8.478;2022-10-24T05:00:45;13.90;99.90
8527;DHT22;4301;48.362;8.478;2022-10-24T05:03:15;13.80;99.90
8527;DHT22;4301;48.362;8.478;2022-10-24T05:05:42;13.80;99.90
8527;DHT22;4301;48.362;8.478;2022-10-24T05:08:10;13.80;99.90
8527;DHT22;4301;48.362;8.478;2022-10-24T05:10:36;13.80;99.90
8527;DHT22;4301;48.362;8.478;2022-10-24T05:13:03;13.80;99.90
8527;DHT22;4301;48.362;8.478;2022-10-24T05:15:30;13.80;99.90
8527;DHT22;4301;48.362;8.478;2022-10-24T05:17:58;13.80;99.90
8527;DHT22;4301;48.362;8.478;2022-10-24T05:20:27;13.70;99.90
8527;DHT22;4301;48.362;8.478;2022-10-24T05:22:55;13.70;99.90
8527;DHT22;4301;48.362;8.478;2022-10-24T05:25:22;13.70;99.90
8527;DHT22;4301;48.362;8.478;2022-10-24T05:27:49;13.60;99.90
8527;DHT22;4301;48.362;8.478;2022-10-24T05:30:16;13.60;99.90
8527;DHT22;4301;48.362;8.478;2022-10-24T05:32:43;13.50;99.90
8527;DHT22;4301;48.362;8.478;2022-10-24T05:35:10;13.50;99.90
8527;DHT22;4301;48.362;8.478;2022-10-24T05:37:39;13.50;99.90
8527;DHT22;4301;48.362;8.478;2022-10-24T05:40:08;13.40;99.90
8527;DHT22;4301;48.362;8.478;2022-10-24T05:42:35;13.30;99.90
8527;DHT22;4301;48.362;8.478;2022-10-24T05:45:04;13.20;99.90
8527;DHT22;4301;48.362;8.478;2022-10-24T05:47:31;13.10;99.90
8527;DHT22;4301;48.362;8.478;2022-10-24T05:49:58;13.10;99.90
8527;DHT22;4301;48.362;8.478;2022-10-24T05:52:25;13.00;99.90
8527;DHT22;4301;48.362;8.478;2022-10-24T05:54:53;13.00;99.90
8527;DHT22;4301;48.362;8.478;2022-10-24T05:57:20;13.00;99.90
8527;DHT22;4301;48.362;8.478;2022-10-24T05:59:47;13.00;99.90
8527;DHT22;4301;48.362;8.478;2022-10-24T06:02:16;13.00;99.90
8527;DHT22;4301;48.362;8.478;2022-10-24T06:04:44;13.00;99.90
8527;DHT22;4301;48.362;8.478;2022-10-24T06:07:11;13.00;99.90
8527;DHT22;4301;48.362;8.478;2022-10-24T06:09:38;13.10;99.90
8527;DHT22;4301;48.362;8.478;2022-10-24T06:12:08;13.00;99.90
8527;DHT22;4301;48.362;8.478;2022-10-24T06:14:35;12.90;99.90
8527;DHT22;4301;48.362;8.478;2022-10-24T06:17:04;12.90;99.90
8527;DHT22;4301;48.362;8.478;2022-10-24T06:19:33;12.90;99.90
8527;DHT22;4301;48.362;8.478;2022-10-24T06:22:01;12.90;99.90
8527;DHT22;4301;48.362;8.478;2022-10-24T06:24:27;12.90;99.90
8527;DHT22;4301;48.362;8.478;2022-10-24T06:26:54;12.90;99.90
8527;DHT22;4301;48.362;8.478;2022-10-24T06:29:23;12.90;99.90
8527;DHT22;4301;48.362;8.478;2022-10-24T06:31:50;12.80;99.90
8527;DHT22;4301;48.362;8.478;2022-10-24T06:34:17;12.80;99.90
8527;DHT22;4301;48.362;8.478;2022-10-24T06:36:43;12.90;99.90
8527;DHT22;4301;48.362;8.478;2022-10-24T06:39:10;12.90;99.90
8527;DHT22;4301;48.362;8.478;2022-10-24T06:41:38;12.90;99.90
8527;DHT22;4301;48.362;8.478;2022-10-24T06:44:05;12.80;99.90
8527;DHT22;4301;48.362;8.478;2022-10-24T06:46:33;12.80;99.90
8527;DHT22;4301;48.362;8.478;2022-10-24T06:49:00;12.80;99.90
8527;DHT22;4301;48.362;8.478;2022-10-24T06:51:27;12.80;99.90
8527;DHT22;4301;48.362;8.478;2022-10-24T06:53:54;12.80;99.90
8527;DHT22;4301;48.362;8.478;2022-10-24T06:56:21;12.80;99.90
8527;DHT22;4301;48.362;8.478;2022-10-24T06:58:48;12.90;99.90
8527;DHT22;4301;48.362;8.478;2022-10-24T07:01:17;12.90;99.90
8527;DHT22;4301;48.362;8.478;2022-10-24T07:03:46;12.90;99.90
8527;DHT22;4301;48.362;8.478;2022-10-24T07:06:16;12.90;99.90
8527;DHT22;4301;48.362;8.478;2022-10-24T07:08:43;12.90;99.90
8527;DHT22;4301;48.362;8.478;2022-10-24T07:11:10;12.80;99.90
8527;DHT22;4301;48.362;8.478;2022-10-24T07:13:38;12.80;99.90
8527;DHT22;4301;48.362;8.478;2022-10-24T07:16:06;12.80;99.90
8527;DHT22;4301;48.362;8.478;2022-10-24T07:18:33;12.90;99.90
8527;DHT22;4301;48.362;8.478;2022-10-24T07:21:03;12.90;99.90
8527;DHT22;4301;48.362;8.478;2022-10-24T07:23:31;13.00;99.90
8527;DHT22;4301;48.362;8.478;2022-10-24T07:26:01;13.10;99.90
8527;DHT22;4301;48.362;8.478;2022-10-24T07:28:28;13.10;99.90
8527;DHT22;4301;48.362;8.478;2022-10-24T07:30:55;13.20;99.90
8527;DHT22;4301;48.362;8.478;2022-10-24T07:33:23;13.20;99.90
8527;DHT22;4301;48.362;8.478;2022-10-24T07:35:50;13.20;99.90
8527;DHT22;4301;48.362;8.478;2022-10-24T07:38:18;13.20;99.90
8527;DHT22;4301;48.362;8.478;2022-10-24T07:40:46;13.30;99.90
8527;DHT22;4301;48.362;8.478;2022-10-24T07:43:13;13.30;99.90
8527;DHT22;4301;48.362;8.478;2022-10-24T07:45:40;13.30;99.90
8527;DHT22;4301;48.362;8.478;2022-10-24T07:48:09;13.40;99.90
8527;DHT22;4301;48.362;8.478;2022-10-24T07:50:42;13.50;99.90
8527;DHT22;4301;48.362;8.478;2022-10-24T07:53:09;13.50;99.90
8527;DHT22;4301;48.362;8.478;2022-10-24T07:55:38;13.50;99.90
8527;DHT22;4301;48.362;8.478;2022-10-24T07:58:05;13.50;99.90
8527;DHT22;4301;48.362;8.478;2022-10-24T08:00:32;13.60;99.90
8527;DHT22;4301;48.362;8.478;2022-10-24T08:02:59;13.60;99.90
8527;DHT22;4301;48.362;8.478;2022-10-24T08:05:26;13.60;99.90
8527;DHT22;4301;48.362;8.478;2022-10-24T08:07:53;13.70;99.90
8527;DHT22;4301;48.362;8.478;2022-10-24T08:10:20;13.70;99.90
8527;DHT22;4301;48.362;8.478;2022-10-24T08:12:49;13.70;99.90
8527;DHT22;4301;48.362;8.478;2022-10-24T08:15:16;13.80;99.90
8527;DHT22;4301;48.362;8.478;2022-10-24T08:17:43;13.70;99.90
8527;DHT22;4301;48.362;8.478;2022-10-24T08:20:10;13.80;99.90
8527;DHT22;4301;48.362;8.478;2022-10-24T08:22:37;13.80;99.90
8527;DHT22;4301;48.362;8.478;2022-10-24T08:25:05;13.80;99.90
8527;DHT22;4301;48.362;8.478;2022-10-24T08:27:34;13.70;99.90
8527;DHT22;4301;48.362;8.478;2022-10-24T08:30:03;13.60;99.90
8527;DHT22;4301;48.362;8.478;2022-10-24T08:32:30;13.60;99.90
8527;DHT22;4301;48.362;8.478;2022-10-24T08:34:57;13.50;99.90
8527;DHT22;4301;48.362;8.478;2022-10-24T08:37:24;13.50;99.90
8527;DHT22;4301;48.362;8.478;2022-10-24T08:39:51;13.50;99.90
8527;DHT22;4301;48.362;8.478;2022-10-24T08:42:21;13.50;99.90
8527;DHT22;4301;48.362;8.478;2022-10-24T08:44:49;13.50;99.90
8527;DHT22;4301;48.362;8.478;2022-10-24T08:47:25;13.50;99.90
8527;DHT22;4301;48.362;8.478;2022-10-24T08:49:57;13.50;99.90
8527;DHT22;4301;48.362;8.478;2022-10-24T08:52:31;13.60;99.90
8527;DHT22;4301;48.362;8.478;2022-10-24T08:55:02;13.60;99.90
8527;DHT22;4301;48.362;8.478;2022-10-24T08:57:34;13.50;99.90
8527;DHT22;4301;48.362;8.478;2022-10-24T09:00:06;13.50;99.90
8527;DHT22;4301;48.362;8.478;2022-10-24T09:02:36;13.50;99.90
8527;DHT22;4301;48.362;8.478;2022-10-24T09:05:18;13.50;99.90
8527;DHT22;4301;48.362;8.478;2022-10-24T09:07:47;13.50;99.90
8527;DHT22;4301;48.362;8.478;2022-10-24T09:10:21;13.40;99.90
8527;DHT22;4301;48.362;8.478;2022-10-24T09:12:49;13.50;99.90
8527;DHT22;4301;48.362;8.478;2022-10-24T09:15:21;13.40;99.90
8527;DHT22;4301;48.362;8.478;2022-10-24T09:17:52;13.40;99.90
8527;DHT22;4301;48.362;8.478;2022-10-24T09:20:23;13.40;99.90
8527;DHT22;4301;48.362;8.478;2022-10-24T09:22:51;13.40;99.90
8527;DHT22;4301;48.362;8.478;2022-10-24T09:25:21;13.40;99.90
8527;DHT22;4301;48.362;8.478;2022-10-24T09:27:50;13.40;99.90
8527;DHT22;4301;48.362;8.478;2022-10-24T09:30:19;13.40;99.90
8527;DHT22;4301;48.362;8.478;2022-10-24T09:32:46;13.40;99.90
8527;DHT22;4301;48.362;8.478;2022-10-24T09:35:18;13.40;99.90
8527;DHT22;4301;48.362;8.478;2022-10-24T09:37:47;13.40;99.90
8527;DHT22;4301;48.362;8.478;2022-10-24T09:40:20;13.40;99.90
8527;DHT22;4301;48.362;8.478;2022-10-24T09:42:53;13.40;99.90
8527;DHT22;4301;48.362;8.478;2022-10-24T09:45:37;13.50;99.90
8527;DHT22;4301;48.362;8.478;2022-10-24T09:48:14;13.50;99.90
8527;DHT22;4301;48.362;8.478;2022-10-24T09:50:46;13.50;99.90
8527;DHT22;4301;48.362;8.478;2022-10-24T09:53:25;13.50;99.90
8527;DHT22;4301;48.362;8.478;2022-10-24T09:55:55;13.60;99.90
8527;DHT22;4301;48.362;8.478;2022-10-24T09:58:25;13.60;99.90
8527;DHT22;4301;48.362;8.478;2022-10-24T10:01:02;13.70;99.90
8527;DHT22;4301;48.362;8.478;2022-10-24T10:03:29;13.70;99.90
8527;DHT22;4301;48.362;8.478;2022-10-24T10:06:00;13.80;99.90
8527;DHT22;4301;48.362;8.478;2022-10-24T10:08:30;13.90;99.90
8527;DHT22;4301;48.362;8.478;2022-10-24T10:11:04;13.90;99.90
8527;DHT22;4301;48.362;8.478;2022-10-24T10:13:34;13.90;99.90
8527;DHT22;4301;48.362;8.478;2022-10-24T10:16:05;14.00;99.90
8527;DHT22;4301;48.362;8.478;2022-10-24T10:18:41;14.00;99.90
8527;DHT22;4301;48.362;8.478;2022-10-24T10:21:14;14.00;99.90
8527;DHT22;4301;48.362;8.478;2022-10-24T10:23:43;14.00;99.90
8527;DHT22;4301;48.362;8.478;2022-10-24T10:26:14;13.90;99.90
8527;DHT22;4301;48.362;8.478;2022-10-24T10:28:45;13.90;99.90
8527;DHT22;4301;48.362;8.478;2022-10-24T10:31:12;13.90;99.90
8527;DHT22;4301;48.362;8.478;2022-10-24T10:33:46;13.90;99.90
8527;DHT22;4301;48.362;8.478;2022-10-24T10:36:21;13.90;99.90
8527;DHT22;4301;48.362;8.478;2022-10-24T10:38:52;13.80;99.90
8527;DHT22;4301;48.362;8.478;2022-10-24T10:41:33;13.80;99.90
8527;DHT22;4301;48.362;8.478;2022-10-24T10:44:24;13.80;99.90
8527;DHT22;4301;48.362;8.478;2022-10-24T10:47:01;13.80;99.90
8527;DHT22;4301;48.362;8.478;2022-10-24T10:49:34;13.80;99.90
8527;DHT22;4301;48.362;8.478;2022-10-24T10:52:11;13.80;99.90
8527;DHT22;4301;48.362;8.478;2022-10-24T10:57:53;13.80;99.90
8527;DHT22;4301;48.362;8.478;2022-10-24T11:00:33;13.80;99.90
8527;DHT22;4301;48.362;8.478;2022-10-24T11:03:25;13.90;99.90
8527;DHT22;4301;48.362;8.478;2022-10-24T11:06:07;13.90;99.90
8527;DHT22;4301;48.362;8.478;2022-10-24T11:09:09;13.90;99.90
8527;DHT22;4301;48.362;8.478;2022-10-24T11:11:41;13.90;99.90
8527;DHT22;4301;48.362;8.478;2022-10-24T11:14:16;14.00;99.90
8527;DHT22;4301;48.362;8.478;2022-10-24T11:16:49;14.00;99.90
8527;DHT22;4301;48.362;8.478;2022-10-24T11:19:24;14.00;99.90
8527;DHT22;4301;48.362;8.478;2022-10-24T11:21:54;14.00;99.90
8527;DHT22;4301;48.362;8.478;2022-10-24T11:24:24;14.00;99.90
8527;DHT22;4301;48.362;8.478;2022-10-24T11:26:57;14.10;99.90
8527;DHT22;4301;48.362;8.478;2022-10-24T11:29:30;14.10;99.90
8527;DHT22;4301;48.362;8.478;2022-10-24T11:32:02;14.10;99.90
8527;DHT22;4301;48.362;8.478;2022-10-24T11:34:35;14.10;99.90
8527;DHT22;4301;48.362;8.478;2022-10-24T11:37:13;14.10;99.90
8527;DHT22;4301;48.362;8.478;2022-10-24T11:39:46;14.10;99.90
8527;DHT22;4301;48.362;8.478;2022-10-24T11:42:19;14.20;99.90
8527;DHT22;4301;48.362;8.478;2022-10-24T11:44:52;14.20;99.90
8527;DHT22;4301;48.362;8.478;2022-10-24T11:47:39;14.30;99.90
8527;DHT22;4301;48.362;8.478;2022-10-24T11:50:12;14.30;99.90
8527;DHT22;4301;48.362;8.478;2022-10-24T11:52:45;14.30;99.90
8527;DHT22;4301;48.362;8.478;2022-10-24T11:55:18;14.30;99.90
8527;DHT22;4301;48.362;8.478;2022-10-24T11:57:49;14.40;99.90
8527;DHT22;4301;48.362;8.478;2022-10-24T12:00:24;14.40;99.90
8527;DHT22;4301;48.362;8.478;2022-10-24T12:06:18;14.40;99.90
8527;DHT22;4301;48.362;8.478;2022-10-24T12:09:29;14.50;99.90
8527;DHT22;4301;48.362;8.478;2022-10-24T12:12:14;14.50;99.90
8527;DHT22;4301;48.362;8.478;2022-10-24T12:14:59;14.50;99.90
8527;DHT22;4301;48.362;8.478;2022-10-24T12:17:46;14.70;99.90
8527;DHT22;4301;48.362;8.478;2022-10-24T12:20:18;14.80;99.90
8527;DHT22;4301;48.362;8.478;2022-10-24T12:22:46;15.00;99.90
8527;DHT22;4301;48.362;8.478;2022-10-24T12:25:21;15.50;99.90
8527;DHT22;4301;48.362;8.478;2022-10-24T12:27:55;15.80;99.90
8527;DHT22;4301;48.362;8.478;2022-10-24T12:30:23;16.20;99.90
8527;DHT22;4301;48.362;8.478;2022-10-24T12:32:54;16.20;99.90
8527;DHT22;4301;48.362;8.478;2022-10-24T12:35:43;16.50;99.90
8527;DHT22;4301;48.362;8.478;2022-10-24T12:38:17;16.50;99.90
8527;DHT22;4301;48.362;8.478;2022-10-24T12:40:50;16.60;99.90
8527;DHT22;4301;48.362;8.478;2022-10-24T12:43:38;16.40;99.90
8527;DHT22;4301;48.362;8.478;2022-10-24T12:49:18;16.50;99.90
8527;DHT22;4301;48.362;8.478;2022-10-24T12:51:45;16.40;99.90
8527;DHT22;4301;48.362;8.478;2022-10-24T12:54:17;16.10;99.90
8527;DHT22;4301;48.362;8.478;2022-10-24T12:57:19;16.10;99.90
8527;DHT22;4301;48.362;8.478;2022-10-24T12:59:50;16.30;99.90
8527;DHT22;4301;48.362;8.478;2022-10-24T13:02:40;16.50;99.90
8527;DHT22;4301;48.362;8.478;2022-10-24T13:08:24;16.50;99.90
8527;DHT22;4301;48.362;8.478;2022-10-24T13:11:08;16.50;99.90
8527;DHT22;4301;48.362;8.478;2022-10-24T13:14:06;16.40;99.90
8527;DHT22;4301;48.362;8.478;2022-10-24T13:16:41;16.40;99.90
8527;DHT22;4301;48.362;8.478;2022-10-24T13:19:14;16.30;99.90
8527;DHT22;4301;48.362;8.478;2022-10-24T13:21:45;16.20;99.90
8527;DHT22;4301;48.362;8.478;2022-10-24T13:24:25;16.00;99.90
8527;DHT22;4301;48.362;8.478;2022-10-24T13:27:25;16.00;99.90
8527;DHT22;4301;48.362;8.478;2022-10-24T13:30:01;15.90;99.90
8527;DHT22;4301;48.362;8.478;2022-10-24T13:32:33;16.00;99.90
8527;DHT22;4301;48.362;8.478;2022-10-24T13:35:02;16.10;99.90
8527;DHT22;4301;48.362;8.478;2022-10-24T13:37:34;16.10;99.90
8527;DHT22;4301;48.362;8.478;2022-10-24T13:40:08;16.20;99.90
8527;DHT22;4301;48.362;8.478;2022-10-24T13:42:40;16.20;99.90
8527;DHT22;4301;48.362;8.478;2022-10-24T13:45:20;16.30;99.90
8527;DHT22;4301;48.362;8.478;2022-10-24T13:47:52;16.50;99.90
8527;DHT22;4301;48.362;8.478;2022-10-24T13:50:22;17.10;99.90
8527;DHT22;4301;48.362;8.478;2022-10-24T13:52:53;17.50;99.90
8527;DHT22;4301;48.362;8.478;2022-10-24T13:55:25;17.40;99.90
8527;DHT22;4301;48.362;8.478;2022-10-24T13:57:58;17.10;99.90
8527;DHT22;4301;48.362;8.478;2022-10-24T14:00:27;17.10;99.90
8527;DHT22;4301;48.362;8.478;2022-10-24T14:02:57;17.00;99.90
8527;DHT22;4301;48.362;8.478;2022-10-24T14:05:34;17.40;99.90
8527;DHT22;4301;48.362;8.478;2022-10-24T14:08:03;18.80;99.90
8527;DHT22;4301;48.362;8.478;2022-10-24T14:10:31;20.40;99.90
8527;DHT22;4301;48.362;8.478;2022-10-24T14:12:59;21.30;99.90
8527;DHT22;4301;48.362;8.478;2022-10-24T14:15:28;21.80;1.00
8527;DHT22;4301;48.362;8.478;2022-10-24T14:17:59;22.30;1.00
8527;DHT22;4301;48.362;8.478;2022-10-24T14:20:30;23.00;99.90
8527;DHT22;4301;48.362;8.478;2022-10-24T14:22:57;22.40;99.90
8527;DHT22;4301;48.362;8.478;2022-10-24T14:25:33;21.10;1.00
8527;DHT22;4301;48.362;8.478;2022-10-24T14:28:08;20.40;1.00
8527;DHT22;4301;48.362;8.478;2022-10-24T14:30:35;20.20;1.00
8527;DHT22;4301;48.362;8.478;2022-10-24T14:33:19;20.30;23.80
8527;DHT22;4301;48.362;8.478;2022-10-24T14:35:46;20.60;1.00
8527;DHT22;4301;48.362;8.478;2022-10-24T14:38:15;20.30;1.00
8527;DHT22;4301;48.362;8.478;2022-10-24T14:40:45;19.50;10.30
8527;DHT22;4301;48.362;8.478;2022-10-24T14:43:15;18.50;1.00
8527;DHT22;4301;48.362;8.478;2022-10-24T14:46:05;17.60;99.90
8527;DHT22;4301;48.362;8.478;2022-10-24T14:48:34;16.90;1.00
8527;DHT22;4301;48.362;8.478;2022-10-24T14:51:03;16.60;99.90
8527;DHT22;4301;48.362;8.478;2022-10-24T14:53:31;16.60;1.00
8527;DHT22;4301;48.362;8.478;2022-10-24T14:55:59;17.00;99.90
8527;DHT22;4301;48.362;8.478;2022-10-24T14:58:27;16.70;99.90
8527;DHT22;4301;48.362;8.478;2022-10-24T15:00:55;16.40;99.90
8527;DHT22;4301;48.362;8.478;2022-10-24T15:03:24;16.00;1.00
8527;DHT22;4301;48.362;8.478;2022-10-24T15:05:58;15.60;1.00
8527;DHT22;4301;48.362;8.478;2022-10-24T15:08:36;15.30;1.00
8527;DHT22;4301;48.362;8.478;2022-10-24T15:11:15;15.30;99.90
8527;DHT22;4301;48.362;8.478;2022-10-24T15:13:48;15.00;99.90
8527;DHT22;4301;48.362;8.478;2022-10-24T15:16:25;15.00;99.90
8527;DHT22;4301;48.362;8.478;2022-10-24T15:18:54;14.80;99.90
8527;DHT22;4301;48.362;8.478;2022-10-24T15:21:25;14.80;99.90
8527;DHT22;4301;48.362;8.478;2022-10-24T15:23:54;14.50;99.90
8527;DHT22;4301;48.362;8.478;2022-10-24T15:26:25;14.40;99.90
8527;DHT22;4301;48.362;8.478;2022-10-24T15:28:57;14.30;99.90
8527;DHT22;4301;48.362;8.478;2022-10-24T15:31:33;14.30;99.90
8527;DHT22;4301;48.362;8.478;2022-10-24T15:34:00;14.20;99.90
8527;DHT22;4301;48.362;8.478;2022-10-24T15:36:30;14.30;99.90
8527;DHT22;4301;48.362;8.478;2022-10-24T15:38:59;14.30;99.90
8527;DHT22;4301;48.362;8.478;2022-10-24T15:41:27;14.20;99.90
8527;DHT22;4301;48.362;8.478;2022-10-24T15:43:55;14.20;99.90
8527;DHT22;4301;48.362;8.478;2022-10-24T15:46:22;14.20;99.90
8527;DHT22;4301;48.362;8.478;2022-10-24T15:48:50;14.10;99.90
8527;DHT22;4301;48.362;8.478;2022-10-24T15:51:19;14.10;99.90
8527;DHT22;4301;48.362;8.478;2022-10-24T15:53:49;14.00;99.90
8527;DHT22;4301;48.362;8.478;2022-10-24T15:56:17;13.90;99.90
8527;DHT22;4301;48.362;8.478;2022-10-24T15:58:44;13.70;99.90
8527;DHT22;4301;48.362;8.478;2022-10-24T16:01:25;13.70;99.90
8527;DHT22;4301;48.362;8.478;2022-10-24T16:03:53;13.60;99.90
8527;DHT22;4301;48.362;8.478;2022-10-24T16:06:20;13.60;99.90
8527;DHT22;4301;48.362;8.478;2022-10-24T16:08:48;13.30;99.90
8527;DHT22;4301;48.362;8.478;2022-10-24T16:11:15;13.50;99.90
8527;DHT22;4301;48.362;8.478;2022-10-24T16:13:43;13.40;99.90
8527;DHT22;4301;48.362;8.478;2022-10-24T16:16:10;13.40;99.90
8527;DHT22;4301;48.362;8.478;2022-10-24T16:18:37;13.30;99.90
8527;DHT22;4301;48.362;8.478;2022-10-24T16:21:04;13.30;99.90
8527;DHT22;4301;48.362;8.478;2022-10-24T16:23:31;13.30;99.90
8527;DHT22;4301;48.362;8.478;2022-10-24T16:26:00;13.20;99.90
8527;DHT22;4301;48.362;8.478;2022-10-24T16:28:27;13.20;99.90
8527;DHT22;4301;48.362;8.478;2022-10-24T16:30:54;13.20;99.90
8527;DHT22;4301;48.362;8.478;2022-10-24T16:33:21;13.10;99.90
8527;DHT22;4301;48.362;8.478;2022-10-24T16:35:48;13.10;99.90
8527;DHT22;4301;48.362;8.478;2022-10-24T16:38:16;13.00;99.90